Time;durP1;ratioP1;P1;durP2;ratioP2;P2;SDS_P1;SDS_P2;PMS_P1;PMS_P2;Temp;Humidity;BMP_temperature;BMP_pressure;BME280_temperature;BME280_humidity;BME280_pressure;Samples;Min_cycle;Max_cycle;Signal;HPM_P1;HPM_P2
2022/09/17 00:01:48;;;;;;;5.70;1.52;;;;;;;;;;5032634;28;20462;-65
2022/09/17 00:04:13;;;;;;;9.18;1.85;;;;;;;;;;5032144;28;20409;-65
2022/09/17 00:06:38;;;;;;;9.88;1.58;;;;;;;;;;5031062;28;20061;-65
2022/09/17 00:09:04;;;;;;;14.00;2.08;;;;;;;;;;5028565;28;20491;-69
2022/09/17 00:11:32;;;;;;;9.90;1.58;;;;;;;;;;5032712;28;20542;-67
2022/09/17 00:13:58;;;;;;;8.27;1.30;;;;;;;;;;5031926;28;20103;-65
2022/09/17 00:16:25;;;;;;;10.25;3.15;;;;;;;;;;5031038;28;20029;-64
2022/09/17 00:18:51;;;;;;;6.15;1.50;;;;;;;;;;5030674;28;20033;-67
2022/09/17 00:21:17;;;;;;;16.77;1.80;;;;;;;;;;5032579;28;20362;-67
2022/09/17 00:23:42;;;;;;;5.32;1.83;;;;;;;;;;5035429;28;20021;-67
2022/09/17 00:26:08;;;;;;;8.98;2.20;;;;;;;;;;5031852;28;20021;-65
2022/09/17 00:28:33;;;;;;;6.82;1.70;;;;;;;;;;5038242;28;20064;-65
2022/09/17 00:30:58;;;;;;;8.00;1.90;;;;;;;;;;5038972;28;20021;-65
2022/09/17 00:33:23;;;;;;;12.07;1.83;;;;;;;;;;5030917;28;20382;-65
2022/09/17 00:36:01;;;;;;;13.43;1.93;;;;;;;;;;5031619;28;20621;-65
2022/09/17 00:38:27;;;;;;;14.73;2.60;;;;;;;;;;5028352;28;20260;-65
2022/09/17 00:40:52;;;;;;;9.27;3.03;;;;;;;;;;5029531;28;20036;-69
2022/09/17 00:43:36;;;;;;;7.65;1.65;;;;;;;;;;5035419;28;20017;-65
2022/09/17 00:46:02;;;;;;;17.20;2.20;;;;;;;;;;5037539;28;20163;-66
2022/09/17 00:48:28;;;;;;;13.93;2.42;;;;;;;;;;5028774;28;20021;-65
2022/09/17 00:50:54;;;;;;;22.67;2.47;;;;;;;;;;5039751;28;20080;-68
2022/09/17 00:53:20;;;;;;;12.13;2.17;;;;;;;;;;5035352;28;20024;-68
2022/09/17 00:56:00;;;;;;;12.25;2.35;;;;;;;;;;5040184;28;20505;-67
2022/09/17 00:58:26;;;;;;;10.02;1.80;;;;;;;;;;5029109;28;20025;-66
2022/09/17 01:00:51;;;;;;;16.77;2.33;;;;;;;;;;5038383;28;20524;-65
2022/09/17 01:03:16;;;;;;;21.17;2.33;;;;;;;;;;5030792;28;20102;-65
2022/09/17 01:05:44;;;;;;;19.23;1.95;;;;;;;;;;5035128;28;20039;-66
2022/09/17 01:08:15;;;;;;;18.13;2.17;;;;;;;;;;5029296;28;20425;-66
2022/09/17 01:10:56;;;;;;;15.32;1.80;;;;;;;;;;5035978;28;20029;-66
2022/09/17 01:13:36;;;;;;;7.75;1.90;;;;;;;;;;5031033;28;20040;-66
2022/09/17 01:16:25;;;;;;;16.38;2.78;;;;;;;;;;5031701;28;20068;-65
2022/09/17 01:19:21;;;;;;;7.80;2.17;;;;;;;;;;5018667;28;20029;-67
2022/09/17 01:21:51;;;;;;;15.55;2.50;;;;;;;;;;4945673;28;20040;-65
2022/09/17 01:24:32;;;;;;;12.27;2.13;;;;;;;;;;5031880;28;20016;-65
2022/09/17 01:27:15;;;;;;;15.07;2.17;;;;;;;;;;5030686;28;20022;-66
2022/09/17 01:29:55;;;;;;;9.02;2.15;;;;;;;;;;5023697;28;20121;-67
2022/09/17 01:32:38;;;;;;;11.70;2.30;;;;;;;;;;5027117;28;20033;-66
2022/09/17 01:35:16;;;;;;;15.10;2.33;;;;;;;;;;5028085;28;20512;-65
2022/09/17 01:37:47;;;;;;;9.13;2.05;;;;;;;;;;5025175;28;20470;-65
2022/09/17 01:40:19;;;;;;;13.48;1.88;;;;;;;;;;5028494;28;20087;-69
2022/09/17 01:43:10;;;;;;;8.68;2.40;;;;;;;;;;5013335;28;20386;-65
2022/09/17 01:45:41;;;;;;;17.92;2.70;;;;;;;;;;4982505;28;20394;-66
2022/09/17 01:48:16;;;;;;;18.40;3.65;;;;;;;;;;5013875;28;20112;-66
2022/09/17 01:50:48;;;;;;;14.57;2.42;;;;;;;;;;5020321;28;20049;-65
2022/09/17 01:53:15;;;;;;;15.07;3.88;;;;;;;;;;5030304;28;20025;-67
2022/09/17 01:55:42;;;;;;;13.25;2.92;;;;;;;;;;5025078;28;20042;-66
2022/09/17 01:58:20;;;;;;;16.23;3.20;;;;;;;;;;5030468;28;20045;-66
2022/09/17 02:00:49;;;;;;;13.00;2.70;;;;;;;;;;5037872;28;20112;-66
2022/09/17 02:03:14;;;;;;;12.65;2.83;;;;;;;;;;5037085;28;20092;-66
2022/09/17 02:06:03;;;;;;;13.10;2.63;;;;;;;;;;5031054;28;20112;-66
2022/09/17 02:08:37;;;;;;;11.55;2.42;;;;;;;;;;5014382;28;20280;-67
2022/09/17 02:11:07;;;;;;;18.88;3.33;;;;;;;;;;5034531;28;20072;-66
2022/09/17 02:13:44;;;;;;;14.60;3.08;;;;;;;;;;5029935;28;20052;-66
2022/09/17 02:16:12;;;;;;;15.05;2.63;;;;;;;;;;5028921;28;20033;-66
2022/09/17 02:18:50;;;;;;;22.13;3.85;;;;;;;;;;5034589;28;20379;-65
2022/09/17 02:21:17;;;;;;;16.70;2.83;;;;;;;;;;5045109;28;20020;-67
2022/09/17 02:23:47;;;;;;;12.02;3.55;;;;;;;;;;5033885;28;20496;-66
2022/09/17 02:26:16;;;;;;;16.33;3.60;;;;;;;;;;5028720;28;20532;-66
2022/09/17 02:28:49;;;;;;;15.07;3.38;;;;;;;;;;5022719;28;20030;-66
2022/09/17 02:31:15;;;;;;;27.90;2.78;;;;;;;;;;5044776;28;20346;-66
2022/09/17 02:33:41;;;;;;;17.98;2.92;;;;;;;;;;5035719;28;20032;-66
2022/09/17 02:36:07;;;;;;;15.27;3.45;;;;;;;;;;5033735;28;20029;-67
2022/09/17 02:38:32;;;;;;;18.88;2.70;;;;;;;;;;5031978;28;20024;-66
2022/09/17 02:41:07;;;;;;;14.82;3.33;;;;;;;;;;5047622;28;20417;-67
2022/09/17 02:43:41;;;;;;;16.35;2.65;;;;;;;;;;5039370;28;20048;-67
2022/09/17 02:46:06;;;;;;;20.38;2.40;;;;;;;;;;5035223;28;20139;-67
2022/09/17 02:48:40;;;;;;;10.18;2.47;;;;;;;;;;5038284;28;20104;-67
2022/09/17 02:51:08;;;;;;;21.63;2.45;;;;;;;;;;5045179;28;20070;-67
2022/09/17 02:53:37;;;;;;;17.40;2.50;;;;;;;;;;5031823;28;20025;-67
2022/09/17 02:56:12;;;;;;;17.45;3.42;;;;;;;;;;5032700;28;20022;-66
2022/09/17 02:58:46;;;;;;;15.85;1.98;;;;;;;;;;5031078;28;20025;-66
2022/09/17 03:01:18;;;;;;;16.92;2.53;;;;;;;;;;5044383;28;20044;-67
2022/09/17 03:03:44;;;;;;;15.05;3.50;;;;;;;;;;5037426;28;20036;-67
2022/09/17 03:06:10;;;;;;;10.95;2.10;;;;;;;;;;5033128;28;20021;-68
2022/09/17 03:08:39;;;;;;;14.88;2.40;;;;;;;;;;5031744;28;20029;-67
2022/09/17 03:11:04;;;;;;;16.00;2.20;;;;;;;;;;5038056;28;20769;-67
2022/09/17 03:13:30;;;;;;;13.82;2.65;;;;;;;;;;5140513;22;20038;-64
2022/09/17 03:15:55;;;;;;;19.50;2.53;;;;;;;;;;5015845;28;20509;-64
2022/09/17 03:18:20;;;;;;;16.02;2.33;;;;;;;;;;5021640;28;20017;-63
2022/09/17 03:20:45;;;;;;;17.30;2.93;;;;;;;;;;5020726;28;20485;-64
2022/09/17 03:23:10;;;;;;;18.17;2.25;;;;;;;;;;5028625;28;20268;-64
2022/09/17 03:25:36;;;;;;;18.37;2.53;;;;;;;;;;5023479;28;20148;-64
2022/09/17 03:28:01;;;;;;;21.67;3.20;;;;;;;;;;5005471;28;20760;-64
2022/09/17 03:30:26;;;;;;;17.90;3.63;;;;;;;;;;5023928;28;20359;-64
2022/09/17 03:32:51;;;;;;;12.23;2.90;;;;;;;;;;5027326;28;20076;-64
2022/09/17 03:35:16;;;;;;;14.97;2.57;;;;;;;;;;5018974;28;20637;-64
2022/09/17 03:37:42;;;;;;;17.40;2.63;;;;;;;;;;5022291;28;20288;-64
2022/09/17 03:40:07;;;;;;;11.38;2.50;;;;;;;;;;5028075;28;20030;-64
2022/09/17 03:42:32;;;;;;;16.27;2.70;;;;;;;;;;5024111;28;20022;-64
2022/09/17 03:44:57;;;;;;;18.50;1.90;;;;;;;;;;5014773;28;20021;-63
2022/09/17 03:47:23;;;;;;;13.70;1.90;;;;;;;;;;5018560;28;20260;-63
2022/09/17 03:49:48;;;;;;;13.50;2.07;;;;;;;;;;5027537;28;20095;-63
2022/09/17 03:52:13;;;;;;;19.87;2.00;;;;;;;;;;5019997;28;20320;-64
2022/09/17 03:54:38;;;;;;;18.80;2.80;;;;;;;;;;5020767;28;20276;-64
2022/09/17 03:57:03;;;;;;;19.48;1.85;;;;;;;;;;5017234;28;20268;-63
2022/09/17 03:59:29;;;;;;;19.87;1.90;;;;;;;;;;5009951;28;20369;-64
2022/09/17 04:01:54;;;;;;;15.80;1.58;;;;;;;;;;5014797;28;20277;-64
2022/09/17 04:04:19;;;;;;;10.88;3.05;;;;;;;;;;5018977;28;20025;-64
2022/09/17 04:06:44;;;;;;;15.90;1.60;;;;;;;;;;5019696;28;20444;-64
2022/09/17 04:09:09;;;;;;;15.10;2.43;;;;;;;;;;5009141;28;20273;-64
2022/09/17 04:11:34;;;;;;;18.58;1.80;;;;;;;;;;5011195;28;20748;-64
2022/09/17 04:14:00;;;;;;;20.85;2.03;;;;;;;;;;5021760;28;20029;-64
2022/09/17 04:16:25;;;;;;;17.25;2.00;;;;;;;;;;5009643;28;20025;-64
2022/09/17 04:18:50;;;;;;;9.60;1.97;;;;;;;;;;5019175;28;20029;-64
2022/09/17 04:21:15;;;;;;;14.15;2.05;;;;;;;;;;5022700;28;20327;-63
2022/09/17 04:23:40;;;;;;;18.20;1.98;;;;;;;;;;5031520;28;20027;-64
2022/09/17 04:26:06;;;;;;;19.83;2.07;;;;;;;;;;5019478;28;20025;-64
2022/09/17 04:28:31;;;;;;;17.92;3.45;;;;;;;;;;5015953;28;20269;-64
2022/09/17 04:30:56;;;;;;;12.50;1.63;;;;;;;;;;5010402;28;20014;-63
2022/09/17 04:33:21;;;;;;;16.23;1.83;;;;;;;;;;5027360;28;20024;-64
2022/09/17 04:35:47;;;;;;;19.15;2.42;;;;;;;;;;5020982;28;20100;-64
2022/09/17 04:38:17;;;;;;;24.20;3.15;;;;;;;;;;5019328;28;20065;-63
2022/09/17 04:40:42;;;;;;;17.30;1.92;;;;;;;;;;5026068;28;20020;-64
2022/09/17 04:43:09;;;;;;;17.83;3.10;;;;;;;;;;5026521;28;20105;-64
2022/09/17 04:45:34;;;;;;;18.85;2.38;;;;;;;;;;5016826;28;20421;-64
2022/09/17 04:48:00;;;;;;;16.37;1.83;;;;;;;;;;5019656;28;20049;-64
2022/09/17 04:50:25;;;;;;;19.42;2.42;;;;;;;;;;5021699;28;20300;-64
2022/09/17 04:52:50;;;;;;;16.27;1.80;;;;;;;;;;5021239;28;20061;-64
2022/09/17 04:55:16;;;;;;;17.43;2.43;;;;;;;;;;5024932;28;20636;-63
2022/09/17 04:57:50;;;;;;;18.33;2.70;;;;;;;;;;5023575;28;20262;-63
2022/09/17 05:00:16;;;;;;;20.75;2.60;;;;;;;;;;5012142;28;20272;-64
2022/09/17 05:02:44;;;;;;;12.25;2.58;;;;;;;;;;5017980;28;20080;-64
2022/09/17 05:05:09;;;;;;;15.40;2.40;;;;;;;;;;5028464;28;20469;-63
2022/09/17 05:07:36;;;;;;;16.83;1.63;;;;;;;;;;5018019;28;20022;-64
2022/09/17 05:10:02;;;;;;;14.18;1.95;;;;;;;;;;5021867;28;20327;-63
2022/09/17 05:12:27;;;;;;;24.58;2.10;;;;;;;;;;5015728;28;20021;-63
2022/09/17 05:14:52;;;;;;;16.50;2.20;;;;;;;;;;5022369;28;20033;-64
2022/09/17 05:17:18;;;;;;;16.83;1.70;;;;;;;;;;5022268;28;20334;-63
2022/09/17 05:19:43;;;;;;;9.37;2.23;;;;;;;;;;5019763;28;20280;-64
2022/09/17 05:22:08;;;;;;;14.70;2.25;;;;;;;;;;5017572;28;20316;-64
2022/09/17 05:24:38;;;;;;;17.40;2.03;;;;;;;;;;5015389;28;20581;-63
2022/09/17 05:27:03;;;;;;;12.40;1.80;;;;;;;;;;5013556;28;20277;-63
2022/09/17 05:29:28;;;;;;;12.27;2.27;;;;;;;;;;5015889;28;20283;-63
2022/09/17 05:31:54;;;;;;;14.47;2.53;;;;;;;;;;5020527;28;20284;-64
2022/09/17 05:34:19;;;;;;;14.20;2.97;;;;;;;;;;5021222;28;20269;-63
2022/09/17 05:36:44;;;;;;;14.80;2.03;;;;;;;;;;5016110;28;20363;-64
2022/09/17 05:39:10;;;;;;;17.70;2.22;;;;;;;;;;5010398;28;20382;-64
2022/09/17 05:41:35;;;;;;;17.50;2.20;;;;;;;;;;5011766;28;20087;-64
2022/09/17 05:44:00;;;;;;;16.83;2.03;;;;;;;;;;5024434;28;20462;-63
2022/09/17 05:46:25;;;;;;;14.43;1.75;;;;;;;;;;5008991;28;20344;-64
2022/09/17 05:48:54;;;;;;;15.73;1.97;;;;;;;;;;5023406;28;20017;-64
2022/09/17 05:51:19;;;;;;;17.58;1.83;;;;;;;;;;5011457;28;20272;-63
2022/09/17 05:53:44;;;;;;;18.67;2.38;;;;;;;;;;5018066;28;20035;-64
2022/09/17 05:56:09;;;;;;;18.87;2.50;;;;;;;;;;5011697;28;20022;-64
2022/09/17 05:58:34;;;;;;;12.82;1.85;;;;;;;;;;5006404;28;20277;-63
2022/09/17 06:01:00;;;;;;;13.98;2.35;;;;;;;;;;5013321;28;20022;-64
2022/09/17 06:03:25;;;;;;;11.10;2.20;;;;;;;;;;5018482;28;20049;-63
2022/09/17 06:05:55;;;;;;;22.87;2.20;;;;;;;;;;5008994;28;20026;-64
2022/09/17 06:08:20;;;;;;;25.23;2.15;;;;;;;;;;5005792;28;20276;-64
2022/09/17 06:10:45;;;;;;;17.98;2.25;;;;;;;;;;5011854;28;20726;-63
2022/09/17 06:13:11;;;;;;;20.93;2.70;;;;;;;;;;5010068;28;20021;-64
2022/09/17 06:15:36;;;;;;;19.20;2.67;;;;;;;;;;5012114;28;20995;-64
2022/09/17 06:18:01;;;;;;;19.37;2.57;;;;;;;;;;5016234;28;20029;-64
2022/09/17 06:20:26;;;;;;;18.97;3.90;;;;;;;;;;5016463;28;20289;-63
2022/09/17 06:22:54;;;;;;;15.82;2.22;;;;;;;;;;5018410;28;20844;-63
2022/09/17 06:25:19;;;;;;;22.60;2.67;;;;;;;;;;5004168;28;20211;-64
2022/09/17 06:27:44;;;;;;;20.23;2.43;;;;;;;;;;5023478;28;20022;-63
2022/09/17 06:30:10;;;;;;;16.73;2.00;;;;;;;;;;5015366;28;20367;-64
2022/09/17 06:32:35;;;;;;;14.85;2.75;;;;;;;;;;5022599;28;20272;-64
2022/09/17 06:35:01;;;;;;;24.60;3.17;;;;;;;;;;5018053;28;20081;-63
2022/09/17 06:37:27;;;;;;;25.38;3.03;;;;;;;;;;5016619;28;20021;-64
2022/09/17 06:39:53;;;;;;;12.57;2.35;;;;;;;;;;5013564;28;20037;-64
2022/09/17 06:42:18;;;;;;;21.05;2.58;;;;;;;;;;5017752;28;20378;-64
2022/09/17 06:44:43;;;;;;;16.93;2.40;;;;;;;;;;5010966;28;20026;-64
2022/09/17 06:47:08;;;;;;;19.13;2.97;;;;;;;;;;5012194;28;20268;-64
2022/09/17 06:49:33;;;;;;;24.17;3.30;;;;;;;;;;5019447;28;20276;-63
2022/09/17 06:51:58;;;;;;;21.45;3.47;;;;;;;;;;5008380;28;20882;-64
2022/09/17 06:54:24;;;;;;;19.33;1.73;;;;;;;;;;5005885;28;20103;-65
2022/09/17 06:56:49;;;;;;;15.07;2.17;;;;;;;;;;5007944;28;20276;-63
2022/09/17 06:59:14;;;;;;;18.80;3.80;;;;;;;;;;5016373;28;20371;-64
2022/09/17 07:01:39;;;;;;;12.40;1.85;;;;;;;;;;5016535;28;20272;-63
2022/09/17 07:04:04;;;;;;;12.88;2.28;;;;;;;;;;5020526;28;20378;-64
2022/09/17 07:06:30;;;;;;;18.00;1.70;;;;;;;;;;5020417;28;20041;-64
2022/09/17 07:08:55;;;;;;;14.98;1.92;;;;;;;;;;5010172;28;20331;-64
2022/09/17 07:11:20;;;;;;;16.05;1.67;;;;;;;;;;5014944;28;20092;-64
2022/09/17 07:13:45;;;;;;;13.88;2.03;;;;;;;;;;5011834;28;20041;-64
2022/09/17 07:16:11;;;;;;;10.13;1.43;;;;;;;;;;5013416;28;20030;-64
2022/09/17 07:18:36;;;;;;;11.63;1.55;;;;;;;;;;5011070;28;20268;-64
2022/09/17 07:21:03;;;;;;;9.10;1.60;;;;;;;;;;5021703;28;20025;-64
2022/09/17 07:23:32;;;;;;;11.20;1.42;;;;;;;;;;5010849;28;20029;-64
2022/09/17 07:25:58;;;;;;;9.70;1.90;;;;;;;;;;5012301;28;20021;-64
2022/09/17 07:28:24;;;;;;;8.68;1.73;;;;;;;;;;5022854;28;20022;-64
2022/09/17 07:30:50;;;;;;;16.65;1.95;;;;;;;;;;5020189;28;20048;-64
2022/09/17 07:33:17;;;;;;;15.55;1.95;;;;;;;;;;5015491;28;20026;-64
2022/09/17 07:35:50;;;;;;;8.90;1.55;;;;;;;;;;5013496;28;20053;-64
2022/09/17 07:38:15;;;;;;;13.77;2.38;;;;;;;;;;5011957;28;20077;-64
2022/09/17 07:40:41;;;;;;;20.70;1.97;;;;;;;;;;5014407;28;20025;-64
2022/09/17 07:43:06;;;;;;;21.45;1.65;;;;;;;;;;5021646;28;20776;-64
2022/09/17 07:45:31;;;;;;;12.50;1.77;;;;;;;;;;5022435;28;20486;-64
2022/09/17 07:47:57;;;;;;;11.97;1.63;;;;;;;;;;5024877;28;20018;-64
2022/09/17 07:50:22;;;;;;;16.08;3.17;;;;;;;;;;5014220;28;20325;-65
2022/09/17 07:52:47;;;;;;;15.00;2.50;;;;;;;;;;5013212;28;20095;-64
2022/09/17 07:55:12;;;;;;;15.98;2.13;;;;;;;;;;5014116;28;20272;-64
2022/09/17 07:57:38;;;;;;;12.70;1.33;;;;;;;;;;5021706;28;20030;-65
2022/09/17 08:00:04;;;;;;;13.80;2.45;;;;;;;;;;5013094;28;20025;-64
2022/09/17 08:02:29;;;;;;;13.23;2.83;;;;;;;;;;5024651;28;20080;-63
2022/09/17 08:04:54;;;;;;;15.20;1.97;;;;;;;;;;5017517;28;20014;-64
2022/09/17 08:07:20;;;;;;;15.50;2.23;;;;;;;;;;5021396;28;20285;-64
2022/09/17 08:09:45;;;;;;;12.03;2.40;;;;;;;;;;5021076;28;20303;-65
2022/09/17 08:12:10;;;;;;;12.00;1.60;;;;;;;;;;5017323;28;20274;-63
2022/09/17 08:14:35;;;;;;;11.63;2.13;;;;;;;;;;5017170;28;20303;-64
2022/09/17 08:17:00;;;;;;;8.40;2.00;;;;;;;;;;5028804;28;20268;-64
2022/09/17 08:19:28;;;;;;;13.87;2.67;;;;;;;;;;5025296;28;20280;-64
2022/09/17 08:21:54;;;;;;;14.40;1.90;;;;;;;;;;5014481;28;20273;-65
2022/09/17 08:24:19;;;;;;;8.45;2.03;;;;;;;;;;5018121;28;20457;-65
2022/09/17 08:26:44;;;;;;;11.67;2.03;;;;;;;;;;5007653;28;20025;-64
2022/09/17 08:29:10;;;;;;;14.10;1.97;;;;;;;;;;5020721;28;20042;-64
2022/09/17 08:31:35;;;;;;;11.55;1.60;;;;;;;;;;5008256;28;20541;-65
2022/09/17 08:34:00;;;;;;;13.52;1.88;;;;;;;;;;5016470;28;20021;-64
2022/09/17 08:36:26;;;;;;;11.33;1.40;;;;;;;;;;5010230;28;20033;-63
2022/09/17 08:38:52;;;;;;;11.57;1.80;;;;;;;;;;5009274;28;20029;-64
2022/09/17 08:41:24;;;;;;;6.75;1.38;;;;;;;;;;5013559;28;20501;-65
2022/09/17 08:44:07;;;;;;;10.55;1.60;;;;;;;;;;5026207;28;20025;-64
2022/09/17 08:46:44;;;;;;;7.75;1.50;;;;;;;;;;5016948;28;20014;-64
2022/09/17 08:49:14;;;;;;;7.90;1.20;;;;;;;;;;5016399;28;20053;-63
2022/09/17 08:51:53;;;;;;;11.23;1.85;;;;;;;;;;5006513;28;20024;-64
2022/09/17 08:54:18;;;;;;;7.03;1.40;;;;;;;;;;5012682;28;20032;-64
2022/09/17 08:56:45;;;;;;;12.68;1.65;;;;;;;;;;5009762;28;20026;-64
2022/09/17 08:59:20;;;;;;;6.30;1.42;;;;;;;;;;5015309;28;20051;-64
2022/09/17 09:01:57;;;;;;;10.40;2.55;;;;;;;;;;5010016;28;20056;-64
2022/09/17 09:04:41;;;;;;;14.00;1.50;;;;;;;;;;5008029;28;20382;-64
2022/09/17 09:07:21;;;;;;;15.07;1.80;;;;;;;;;;5009034;28;20481;-64
2022/09/17 09:09:54;;;;;;;14.60;1.48;;;;;;;;;;5016832;28;20033;-64
2022/09/17 09:12:23;;;;;;;11.88;2.42;;;;;;;;;;5012784;28;20030;-64
2022/09/17 09:14:52;;;;;;;11.80;1.60;;;;;;;;;;5053289;22;20412;-67
2022/09/17 09:17:19;;;;;;;12.80;1.35;;;;;;;;;;5029124;28;20059;-67
2022/09/17 09:19:45;;;;;;;8.75;1.23;;;;;;;;;;5026902;28;20563;-67
2022/09/17 09:22:13;;;;;;;4.93;1.17;;;;;;;;;;5033371;28;20053;-67
2022/09/17 09:24:49;;;;;;;21.58;2.20;;;;;;;;;;5034331;28;20070;-69
2022/09/17 09:27:15;;;;;;;10.50;1.90;;;;;;;;;;5023281;28;20013;-67
2022/09/17 09:29:45;;;;;;;13.30;1.70;;;;;;;;;;5031310;28;20021;-67
2022/09/17 09:32:16;;;;;;;11.98;1.05;;;;;;;;;;5029500;28;20109;-69
2022/09/17 09:34:41;;;;;;;8.65;1.35;;;;;;;;;;5026006;28;20030;-70
2022/09/17 09:37:19;;;;;;;6.70;1.52;;;;;;;;;;5039464;28;20033;-68
2022/09/17 09:39:45;;;;;;;9.55;1.38;;;;;;;;;;5027245;28;20025;-69
2022/09/17 09:42:30;;;;;;;11.23;1.52;;;;;;;;;;5026900;28;20021;-68
2022/09/17 09:44:57;;;;;;;13.40;1.25;;;;;;;;;;5030670;28;20153;-68
2022/09/17 09:47:54;;;;;;;10.70;1.55;;;;;;;;;;5029721;28;20524;-68
2022/09/17 09:50:40;;;;;;;10.88;1.85;;;;;;;;;;4971752;28;20037;-68
2022/09/17 09:53:05;;;;;;;12.77;2.55;;;;;;;;;;5020719;28;20600;-68
2022/09/17 09:55:49;;;;;;;10.68;1.05;;;;;;;;;;5031346;28;20020;-68
2022/09/17 09:58:27;;;;;;;15.85;1.77;;;;;;;;;;5030517;28;20018;-68
2022/09/17 10:00:53;;;;;;;7.82;1.48;;;;;;;;;;5029809;28;20029;-69
2022/09/17 10:03:22;;;;;;;6.63;1.70;;;;;;;;;;5039267;28;20018;-68
2022/09/17 10:06:04;;;;;;;3.03;0.80;;;;;;;;;;5030723;28;20280;-68
2022/09/17 10:08:31;;;;;;;9.15;1.52;;;;;;;;;;5034546;28;20032;-68
2022/09/17 10:11:00;;;;;;;6.10;1.17;;;;;;;;;;5041850;28;20354;-68
2022/09/17 10:13:26;;;;;;;9.13;0.80;;;;;;;;;;5038085;28;20031;-68
2022/09/17 10:15:52;;;;;;;6.45;1.33;;;;;;;;;;5032330;28;20122;-69
2022/09/17 10:18:18;;;;;;;10.55;1.77;;;;;;;;;;5027251;28;20497;-68
2022/09/17 10:20:50;;;;;;;6.05;1.05;;;;;;;;;;5026736;28;20041;-69
2022/09/17 10:23:16;;;;;;;6.70;1.05;;;;;;;;;;5041028;28;20017;-69
2022/09/17 10:25:42;;;;;;;6.88;1.45;;;;;;;;;;5033892;28;20025;-66
2022/09/17 10:28:22;;;;;;;7.53;0.95;;;;;;;;;;5028909;28;20031;-69
2022/09/17 10:30:54;;;;;;;7.68;1.35;;;;;;;;;;5028405;28;20113;-69
2022/09/17 10:33:29;;;;;;;12.48;1.17;;;;;;;;;;5019322;28;20048;-69
2022/09/17 10:36:21;;;;;;;8.80;1.48;;;;;;;;;;5036318;28;20158;-69
2022/09/17 10:38:46;;;;;;;11.70;1.65;;;;;;;;;;5001434;28;20084;-69
2022/09/17 10:41:13;;;;;;;13.90;1.20;;;;;;;;;;5029094;28;20481;-69
2022/09/17 10:43:40;;;;;;;4.25;0.75;;;;;;;;;;5028149;28;20035;-71
2022/09/17 10:46:06;;;;;;;12.13;1.20;;;;;;;;;;5042386;28;20017;-71
2022/09/17 10:48:36;;;;;;;4.63;0.93;;;;;;;;;;5029426;28;20480;-69
2022/09/17 10:51:02;;;;;;;7.03;1.27;;;;;;;;;;5028284;28;20028;-69
2022/09/17 10:53:27;;;;;;;8.77;0.90;;;;;;;;;;5028409;28;20021;-69
2022/09/17 10:55:58;;;;;;;7.25;0.80;;;;;;;;;;5037152;28;20029;-69
2022/09/17 10:58:35;;;;;;;6.65;0.70;;;;;;;;;;5033240;28;20439;-69
2022/09/17 11:01:03;;;;;;;12.07;1.35;;;;;;;;;;5041515;28;20033;-69
2022/09/17 11:03:48;;;;;;;13.88;1.10;;;;;;;;;;5017001;28;20163;-69
2022/09/17 11:06:36;;;;;;;6.38;0.60;;;;;;;;;;5050382;28;20100;-69
2022/09/17 11:09:17;;;;;;;4.03;0.57;;;;;;;;;;5042498;28;20083;-69
2022/09/17 11:12:01;;;;;;;4.10;0.93;;;;;;;;;;5053288;28;20028;-70
2022/09/17 11:14:26;;;;;;;8.50;0.90;;;;;;;;;;5041680;28;20025;-69
2022/09/17 11:17:03;;;;;;;6.53;0.82;;;;;;;;;;5032907;28;20071;-69
2022/09/17 11:19:37;;;;;;;5.47;0.75;;;;;;;;;;5028255;28;20013;-70
2022/09/17 11:22:22;;;;;;;6.03;0.93;;;;;;;;;;5033461;28;20025;-70
2022/09/17 11:25:07;;;;;;;4.35;0.77;;;;;;;;;;5039643;28;20511;-69
2022/09/17 11:27:58;;;;;;;13.07;0.93;;;;;;;;;;5028662;28;20029;-70
2022/09/17 11:30:25;;;;;;;3.15;0.60;;;;;;;;;;4999074;28;20029;-69
2022/09/17 11:33:09;;;;;;;7.43;1.13;;;;;;;;;;5033827;28;20064;-68
2022/09/17 11:35:40;;;;;;;3.17;0.75;;;;;;;;;;5033418;28;20625;-69
2022/09/17 11:38:09;;;;;;;7.20;1.35;;;;;;;;;;5033553;28;20620;-68
2022/09/17 11:40:38;;;;;;;7.05;0.95;;;;;;;;;;5024424;28;20036;-69
2022/09/17 11:43:11;;;;;;;6.03;0.73;;;;;;;;;;5025940;28;20022;-69
2022/09/17 11:45:38;;;;;;;9.95;1.10;;;;;;;;;;5043054;28;20032;-69
2022/09/17 11:48:12;;;;;;;3.65;0.77;;;;;;;;;;5034813;28;20018;-69
2022/09/17 11:50:44;;;;;;;4.28;0.70;;;;;;;;;;5017607;28;20025;-69
2022/09/17 11:53:19;;;;;;;3.60;0.90;;;;;;;;;;5029833;28;20035;-69
2022/09/17 11:55:44;;;;;;;12.73;0.90;;;;;;;;;;5038750;28;20390;-68
2022/09/17 11:58:12;;;;;;;10.05;1.15;;;;;;;;;;5048059;28;20358;-67
2022/09/17 12:00:41;;;;;;;9.75;0.75;;;;;;;;;;5028914;28;20017;-68
2022/09/17 12:03:16;;;;;;;6.63;1.05;;;;;;;;;;5028629;28;20623;-68
2022/09/17 12:05:44;;;;;;;7.05;0.93;;;;;;;;;;5035732;28;20025;-69
2022/09/17 12:08:13;;;;;;;5.22;0.70;;;;;;;;;;5026799;28;20076;-69
2022/09/17 12:10:44;;;;;;;7.70;0.67;;;;;;;;;;5031117;28;20026;-68
2022/09/17 12:13:28;;;;;;;3.95;0.30;;;;;;;;;;5030076;28;20076;-69
2022/09/17 12:16:00;;;;;;;3.40;0.45;;;;;;;;;;5030957;28;20028;-70
2022/09/17 12:18:25;;;;;;;4.78;0.70;;;;;;;;;;5031469;28;20025;-67
2022/09/17 12:20:53;;;;;;;8.50;1.20;;;;;;;;;;5031556;28;20025;-69
2022/09/17 12:23:22;;;;;;;2.67;1.02;;;;;;;;;;5029208;28;20683;-69
2022/09/17 12:25:51;;;;;;;4.78;0.73;;;;;;;;;;5031758;28;20381;-68
2022/09/17 12:28:49;;;;;;;2.22;0.60;;;;;;;;;;5029930;28;20409;-69
2022/09/17 12:31:28;;;;;;;4.97;0.47;;;;;;;;;;5005785;28;20038;-69
2022/09/17 12:33:56;;;;;;;4.17;0.93;;;;;;;;;;5027895;28;20100;-68
2022/09/17 12:36:24;;;;;;;2.72;0.40;;;;;;;;;;5028987;28;20784;-67
2022/09/17 12:38:50;;;;;;;7.22;1.55;;;;;;;;;;5041663;28;20029;-65
2022/09/17 12:41:34;;;;;;;3.60;0.40;;;;;;;;;;5029852;28;20030;-69
2022/09/17 12:44:05;;;;;;;7.80;0.70;;;;;;;;;;5035650;28;20071;-69
2022/09/17 12:46:30;;;;;;;9.27;0.80;;;;;;;;;;5033497;28;20023;-67
2022/09/17 12:49:14;;;;;;;7.93;0.73;;;;;;;;;;5039656;28;20021;-68
2022/09/17 12:51:49;;;;;;;5.25;1.00;;;;;;;;;;5034704;28;20036;-70
2022/09/17 12:54:33;;;;;;;7.28;1.20;;;;;;;;;;5033787;28;20559;-69
2022/09/17 12:57:17;;;;;;;2.85;0.70;;;;;;;;;;5027285;28;20026;-68
2022/09/17 12:59:48;;;;;;;3.97;0.65;;;;;;;;;;5035492;28;20025;-69
2022/09/17 13:02:19;;;;;;;2.40;0.75;;;;;;;;;;5033733;28;20021;-70
2022/09/17 13:05:03;;;;;;;11.55;0.77;;;;;;;;;;5033746;28;20032;-68
2022/09/17 13:07:47;;;;;;;2.42;0.43;;;;;;;;;;5034375;28;20021;-68
2022/09/17 13:10:18;;;;;;;1.92;0.50;;;;;;;;;;5037088;28;20076;-68
2022/09/17 13:12:46;;;;;;;1.35;0.47;;;;;;;;;;5031989;28;20481;-68
2022/09/17 13:15:11;;;;;;;1.77;0.40;;;;;;;;;;5029799;28;20116;-68
2022/09/17 13:17:51;;;;;;;2.47;0.38;;;;;;;;;;5030116;28;20085;-68
2022/09/17 13:20:28;;;;;;;1.73;0.30;;;;;;;;;;5029958;28;20017;-68
2022/09/17 13:22:55;;;;;;;2.67;0.50;;;;;;;;;;5026347;28;20060;-67
2022/09/17 13:25:21;;;;;;;1.98;0.30;;;;;;;;;;5036800;28;20104;-67
2022/09/17 13:27:47;;;;;;;6.32;0.47;;;;;;;;;;5030033;28;20109;-68
2022/09/17 13:30:14;;;;;;;2.88;0.57;;;;;;;;;;5032925;28;20039;-68
2022/09/17 13:32:40;;;;;;;2.75;1.05;;;;;;;;;;5036740;28;20280;-68
2022/09/17 13:35:05;;;;;;;3.72;1.13;;;;;;;;;;5036894;28;20025;-68
2022/09/17 13:37:30;;;;;;;2.75;1.05;;;;;;;;;;5039075;28;20362;-67
2022/09/17 13:39:55;;;;;;;6.13;0.80;;;;;;;;;;5028825;28;20033;-68
2022/09/17 13:42:21;;;;;;;2.40;0.60;;;;;;;;;;5028865;28;20037;-69
2022/09/17 13:44:52;;;;;;;3.38;0.80;;;;;;;;;;5027762;28;20026;-66
2022/09/17 13:47:20;;;;;;;4.30;0.73;;;;;;;;;;5035440;28;20025;-68
2022/09/17 13:49:48;;;;;;;4.53;1.00;;;;;;;;;;5035048;28;20048;-68
2022/09/17 13:52:13;;;;;;;4.88;1.10;;;;;;;;;;5031936;28;20228;-68
2022/09/17 13:54:39;;;;;;;11.20;2.30;;;;;;;;;;5029260;28;20100;-68
2022/09/17 13:57:09;;;;;;;1.48;0.40;;;;;;;;;;5026690;28;20029;-68
2022/09/17 13:59:35;;;;;;;;;;;;;;;;;;5029161;28;20286;-68
2022/09/17 14:02:23;;;;;;;2.75;0.30;;;;;;;;;;5035322;28;19917;-69
2022/09/17 14:05:12;;;;;;;2.97;0.82;;;;;;;;;;5042349;28;20029;-69
2022/09/17 14:07:46;;;;;;;5.10;1.08;;;;;;;;;;5028231;28;20021;-68
2022/09/17 14:10:14;;;;;;;6.50;0.90;;;;;;;;;;5029891;28;20052;-67
2022/09/17 14:12:49;;;;;;;3.22;0.60;;;;;;;;;;5028296;28;20029;-68
2022/09/17 14:15:35;;;;;;;3.25;0.60;;;;;;;;;;5035642;28;20029;-68
2022/09/17 14:18:01;;;;;;;8.43;0.70;;;;;;;;;;5028413;28;20159;-68
2022/09/17 14:20:27;;;;;;;3.65;1.20;;;;;;;;;;5034486;28;20022;-68
2022/09/17 14:22:56;;;;;;;3.70;0.68;;;;;;;;;;5029474;28;20104;-68
2022/09/17 14:25:26;;;;;;;7.65;0.73;;;;;;;;;;5035792;28;20128;-68
2022/09/17 14:27:56;;;;;;;1.48;0.60;;;;;;;;;;5028177;28;20013;-67
2022/09/17 14:30:25;;;;;;;7.43;1.02;;;;;;;;;;5037004;28;20017;-68
2022/09/17 14:32:59;;;;;;;4.85;1.00;;;;;;;;;;5014615;28;20025;-68
2022/09/17 14:35:30;;;;;;;3.47;0.70;;;;;;;;;;5030514;28;20014;-68
2022/09/17 14:38:22;;;;;;;3.22;0.75;;;;;;;;;;5038448;28;20036;-67
2022/09/17 14:40:52;;;;;;;4.65;1.10;;;;;;;;;;5035494;28;20112;-68
2022/09/17 14:43:20;;;;;;;2.53;0.80;;;;;;;;;;5032849;28;20017;-68
2022/09/17 14:45:47;;;;;;;6.25;0.95;;;;;;;;;;5032532;28;20026;-68
2022/09/17 14:48:16;;;;;;;3.38;0.50;;;;;;;;;;5038159;28;20785;-69
2022/09/17 14:50:41;;;;;;;4.03;0.50;;;;;;;;;;5035603;28;20350;-68